Time;durP1;ratioP1;P1;durP2;ratioP2;P2;SDS_P1;SDS_P2;PMS_P1;PMS_P2;Temp;Humidity;BMP_temperature;BMP_pressure;BME280_temperature;BME280_humidity;BME280_pressure;Samples;Min_cycle;Max_cycle;Signal;HPM_P1;HPM_P2
2021/09/15 00:00:53;;;;;;;7.60;6.70;;;;;;;;;;5053598;28;20883;-65
2021/09/15 00:03:19;;;;;;;8.73;6.83;;;;;;;;;;5050449;28;20425;-64
2021/09/15 00:05:45;;;;;;;9.70;7.33;;;;;;;;;;5053212;28;20485;-64
2021/09/15 00:08:11;;;;;;;8.47;6.57;;;;;;;;;;5052248;28;20425;-65
2021/09/15 00:10:37;;;;;;;9.90;7.47;;;;;;;;;;5051964;28;20426;-65
2021/09/15 00:13:03;;;;;;;7.20;6.30;;;;;;;;;;5052322;28;20509;-65
2021/09/15 00:15:30;;;;;;;7.70;6.40;;;;;;;;;;5056857;28;20406;-65
2021/09/15 00:17:56;;;;;;;8.83;6.80;;;;;;;;;;5055905;28;20831;-64
2021/09/15 00:20:22;;;;;;;8.40;7.17;;;;;;;;;;5057513;28;20426;-65
2021/09/15 00:22:48;;;;;;;8.93;7.00;;;;;;;;;;5057659;28;20429;-65
2021/09/15 00:25:14;;;;;;;7.80;6.53;;;;;;;;;;5058476;28;20745;-65
2021/09/15 00:27:40;;;;;;;8.43;7.07;;;;;;;;;;5057613;28;20425;-66
2021/09/15 00:30:06;;;;;;;9.43;7.50;;;;;;;;;;5058425;28;20429;-65
2021/09/15 00:32:32;;;;;;;8.53;6.80;;;;;;;;;;5057568;28;20420;-66
2021/09/15 00:34:58;;;;;;;7.93;6.90;;;;;;;;;;5056943;28;20421;-65
2021/09/15 00:37:24;;;;;;;10.40;7.03;;;;;;;;;;5057207;28;20402;-66
2021/09/15 00:39:50;;;;;;;11.30;8.03;;;;;;;;;;5038455;28;20439;-65
2021/09/15 00:42:16;;;;;;;9.17;6.73;;;;;;;;;;5038311;28;20387;-65
2021/09/15 00:44:43;;;;;;;7.43;6.40;;;;;;;;;;5055974;28;20468;-65
2021/09/15 00:47:09;;;;;;;10.87;6.70;;;;;;;;;;5058339;28;20417;-65
2021/09/15 00:49:35;;;;;;;8.27;7.03;;;;;;;;;;5057631;28;20504;-66
2021/09/15 00:52:01;;;;;;;9.33;7.40;;;;;;;;;;5058435;28;20428;-65
2021/09/15 00:54:27;;;;;;;9.10;7.00;;;;;;;;;;5057647;28;20513;-65
2021/09/15 00:56:53;;;;;;;8.67;6.33;;;;;;;;;;5058802;28;20397;-65
2021/09/15 00:59:19;;;;;;;8.20;6.43;;;;;;;;;;5057661;28;20461;-65
2021/09/15 01:01:45;;;;;;;9.80;7.57;;;;;;;;;;5058121;28;20418;-65
2021/09/15 01:04:11;;;;;;;8.97;6.90;;;;;;;;;;5057590;28;20486;-65
2021/09/15 01:06:37;;;;;;;11.00;7.07;;;;;;;;;;5058898;28;20398;-65
2021/09/15 01:09:04;;;;;;;9.73;7.40;;;;;;;;;;5057333;28;20430;-65
2021/09/15 01:11:34;;;;;;;9.10;6.67;;;;;;;;;;5058331;28;20426;-65
2021/09/15 01:14:00;;;;;;;9.57;7.83;;;;;;;;;;5057437;28;20430;-65
2021/09/15 01:16:26;;;;;;;10.23;7.93;;;;;;;;;;5058386;28;20485;-65
2021/09/15 01:18:52;;;;;;;7.77;6.97;;;;;;;;;;5056283;28;20461;-65
2021/09/15 01:21:18;;;;;;;10.37;7.13;;;;;;;;;;5057970;28;20836;-65
2021/09/15 01:23:45;;;;;;;9.43;7.50;;;;;;;;;;5057339;28;20936;-65
2021/09/15 01:26:12;;;;;;;8.83;7.30;;;;;;;;;;5058895;28;20402;-65
2021/09/15 01:28:38;;;;;;;8.13;6.93;;;;;;;;;;5057515;28;20425;-65
2021/09/15 01:31:04;;;;;;;12.67;8.00;;;;;;;;;;5058143;28;20564;-65
2021/09/15 01:33:30;;;;;;;8.47;7.57;;;;;;;;;;5057014;28;20455;-65
2021/09/15 01:35:56;;;;;;;7.33;6.63;;;;;;;;;;5058236;28;20473;-65
2021/09/15 01:38:22;;;;;;;9.57;8.50;;;;;;;;;;5056720;28;20555;-66
2021/09/15 01:40:50;;;;;;;8.90;7.30;;;;;;;;;;5057514;28;20465;-65
2021/09/15 01:43:17;;;;;;;9.80;8.20;;;;;;;;;;5056620;28;20791;-66
2021/09/15 01:45:43;;;;;;;10.77;8.50;;;;;;;;;;5057443;28;20410;-66
2021/09/15 01:48:09;;;;;;;11.50;7.97;;;;;;;;;;5053706;28;20509;-65
2021/09/15 01:50:35;;;;;;;10.90;7.73;;;;;;;;;;5053346;28;20433;-64
2021/09/15 01:53:01;;;;;;;13.77;8.10;;;;;;;;;;5053652;28;20421;-65
2021/09/15 01:55:28;;;;;;;10.43;8.23;;;;;;;;;;5044835;28;20454;-65
2021/09/15 01:57:55;;;;;;;9.33;8.00;;;;;;;;;;5034205;28;20466;-65
2021/09/15 02:00:21;;;;;;;9.03;7.60;;;;;;;;;;5050408;28;20448;-65
2021/09/15 02:02:50;;;;;;;13.50;8.10;;;;;;;;;;5052974;28;20438;-65
2021/09/15 02:05:17;;;;;;;7.57;6.77;;;;;;;;;;5053122;28;20509;-65
2021/09/15 02:07:43;;;;;;;8.90;8.00;;;;;;;;;;5055677;28;20410;-65
2021/09/15 02:10:09;;;;;;;9.73;8.60;;;;;;;;;;5051943;28;20445;-64
2021/09/15 02:12:35;;;;;;;13.50;8.03;;;;;;;;;;5058317;28;20895;-65
2021/09/15 02:15:01;;;;;;;10.43;8.33;;;;;;;;;;5056632;28;20487;-66
2021/09/15 02:17:28;;;;;;;9.37;7.03;;;;;;;;;;5058062;28;20819;-65
2021/09/15 02:19:54;;;;;;;9.20;8.20;;;;;;;;;;5056765;28;20474;-66
2021/09/15 02:22:20;;;;;;;8.63;7.73;;;;;;;;;;5056937;28;20901;-65
2021/09/15 02:24:46;;;;;;;9.33;7.07;;;;;;;;;;5056903;28;20422;-65
2021/09/15 02:27:12;;;;;;;7.93;7.13;;;;;;;;;;5057944;28;20410;-65
2021/09/15 02:29:38;;;;;;;8.47;6.87;;;;;;;;;;5056104;28;20429;-65
2021/09/15 02:32:04;;;;;;;10.53;7.97;;;;;;;;;;5056298;28;20428;-65
2021/09/15 02:34:30;;;;;;;9.70;7.33;;;;;;;;;;5055837;28;20430;-65
2021/09/15 02:36:56;;;;;;;10.90;8.40;;;;;;;;;;5056742;28;20437;-65
2021/09/15 02:39:22;;;;;;;12.27;8.10;;;;;;;;;;5057710;28;20461;-65
2021/09/15 02:41:48;;;;;;;11.37;8.00;;;;;;;;;;5058101;28;20526;-64
2021/09/15 02:44:14;;;;;;;11.67;9.37;;;;;;;;;;5039790;28;20437;-65
2021/09/15 02:46:40;;;;;;;9.33;8.13;;;;;;;;;;5056686;28;20412;-65
2021/09/15 02:49:06;;;;;;;11.20;8.70;;;;;;;;;;5055932;28;20426;-65
2021/09/15 02:51:32;;;;;;;12.90;9.90;;;;;;;;;;5056795;28;20433;-65
2021/09/15 02:53:58;;;;;;;13.70;9.70;;;;;;;;;;5055851;28;20509;-66
2021/09/15 02:56:24;;;;;;;11.07;9.07;;;;;;;;;;5056956;28;20398;-64
2021/09/15 02:58:50;;;;;;;14.67;8.83;;;;;;;;;;5056153;28;20446;-66
2021/09/15 03:01:16;;;;;;;10.53;8.07;;;;;;;;;;5056840;28;20422;-65
2021/09/15 03:03:42;;;;;;;10.70;8.63;;;;;;;;;;5054949;28;20426;-65
2021/09/15 03:06:09;;;;;;;9.40;8.33;;;;;;;;;;5039688;28;20770;-64
2021/09/15 03:08:35;;;;;;;11.60;9.00;;;;;;;;;;5036980;28;20407;-65
2021/09/15 03:11:01;;;;;;;11.30;8.43;;;;;;;;;;5055943;28;20526;-65
2021/09/15 03:13:27;;;;;;;11.57;8.27;;;;;;;;;;5056951;28;20405;-65
2021/09/15 03:15:53;;;;;;;10.10;8.30;;;;;;;;;;5037518;28;20427;-65
2021/09/15 03:18:19;;;;;;;12.70;7.70;;;;;;;;;;5036156;28;20454;-66
2021/09/15 03:20:45;;;;;;;8.57;6.83;;;;;;;;;;5052446;28;20802;-65
2021/09/15 03:23:11;;;;;;;12.17;7.60;;;;;;;;;;5055683;28;20405;-65
2021/09/15 03:25:37;;;;;;;10.23;8.10;;;;;;;;;;5053565;28;20428;-66
2021/09/15 03:28:03;;;;;;;10.47;8.40;;;;;;;;;;5042719;28;20540;-65
2021/09/15 03:30:30;;;;;;;11.53;7.17;;;;;;;;;;5054707;28;20544;-65
2021/09/15 03:32:56;;;;;;;9.53;7.37;;;;;;;;;;5055913;28;20459;-65
2021/09/15 03:35:22;;;;;;;10.33;7.50;;;;;;;;;;5055021;28;20873;-65
2021/09/15 03:37:48;;;;;;;11.93;8.20;;;;;;;;;;5053279;28;20519;-65
2021/09/15 03:40:14;;;;;;;10.97;7.30;;;;;;;;;;5054012;28;20462;-66
2021/09/15 03:42:40;;;;;;;9.83;7.40;;;;;;;;;;5055362;28;20946;-65
2021/09/15 03:45:06;;;;;;;9.50;6.93;;;;;;;;;;5054446;28;20453;-65
2021/09/15 03:47:32;;;;;;;7.70;6.23;;;;;;;;;;5055141;28;20632;-65
2021/09/15 03:49:58;;;;;;;10.20;7.60;;;;;;;;;;5039187;28;20782;-66
2021/09/15 03:52:25;;;;;;;11.17;6.70;;;;;;;;;;5059675;28;20875;-66
2021/09/15 03:54:51;;;;;;;16.90;9.43;;;;;;;;;;5059466;28;20433;-65
2021/09/15 03:57:17;;;;;;;8.23;6.87;;;;;;;;;;5058993;28;20418;-65
2021/09/15 03:59:43;;;;;;;7.50;6.73;;;;;;;;;;5059255;28;20465;-65
2021/09/15 04:02:09;;;;;;;8.23;7.30;;;;;;;;;;5039068;28;20426;-65
2021/09/15 04:04:35;;;;;;;12.63;7.87;;;;;;;;;;5043805;28;20436;-65
2021/09/15 04:07:01;;;;;;;10.43;8.30;;;;;;;;;;5056868;28;20402;-65
2021/09/15 04:09:27;;;;;;;9.23;7.00;;;;;;;;;;5055676;28;20425;-65
2021/09/15 04:11:53;;;;;;;11.53;7.97;;;;;;;;;;5054042;28;20436;-65
2021/09/15 04:14:19;;;;;;;10.70;7.03;;;;;;;;;;5055834;28;20406;-64
2021/09/15 04:16:45;;;;;;;9.50;7.40;;;;;;;;;;5055106;28;20409;-65
2021/09/15 04:19:11;;;;;;;12.33;7.60;;;;;;;;;;5056450;28;20458;-64
2021/09/15 04:21:39;;;;;;;10.57;7.40;;;;;;;;;;5055397;28;20480;-65
2021/09/15 04:32:01;;;;;;;7.87;6.60;;;;;;;;;;5055618;28;20440;-65
2021/09/15 04:34:27;;;;;;;7.57;6.17;;;;;;;;;;5056060;28;20895;-65
2021/09/15 04:36:53;;;;;;;10.63;7.33;;;;;;;;;;5038554;28;20435;-65
2021/09/15 04:39:19;;;;;;;10.33;7.37;;;;;;;;;;5036055;28;20966;-65
2021/09/15 04:41:45;;;;;;;11.30;7.67;;;;;;;;;;5055456;28;20503;-65
2021/09/15 04:44:11;;;;;;;10.23;7.60;;;;;;;;;;5059857;28;20735;-65
2021/09/15 04:46:37;;;;;;;9.47;7.33;;;;;;;;;;5045464;28;20894;-65
2021/09/15 04:49:03;;;;;;;10.40;6.43;;;;;;;;;;5039547;28;20435;-65
2021/09/15 04:51:29;;;;;;;7.53;6.73;;;;;;;;;;5051279;28;20462;-64
2021/09/15 04:53:55;;;;;;;11.17;8.27;;;;;;;;;;5057153;28;20413;-65
2021/09/15 04:56:21;;;;;;;7.87;6.40;;;;;;;;;;5055851;28;20437;-64
2021/09/15 04:58:47;;;;;;;8.50;7.50;;;;;;;;;;5057186;28;20457;-65
2021/09/15 05:01:13;;;;;;;9.43;6.80;;;;;;;;;;5055959;28;20473;-65
2021/09/15 05:03:39;;;;;;;8.13;6.33;;;;;;;;;;5057543;28;20394;-64
2021/09/15 05:06:05;;;;;;;8.63;6.77;;;;;;;;;;5055949;28;20460;-64
2021/09/15 05:08:32;;;;;;;10.83;6.17;;;;;;;;;;5056006;28;20426;-65
2021/09/15 05:10:58;;;;;;;7.90;5.90;;;;;;;;;;5053745;28;20498;-65
2021/09/15 05:13:24;;;;;;;8.67;7.30;;;;;;;;;;5056139;28;20543;-65
2021/09/15 05:15:50;;;;;;;9.80;6.53;;;;;;;;;;5054140;28;20924;-65
2021/09/15 05:18:16;;;;;;;7.57;6.50;;;;;;;;;;5055909;28;20464;-65
2021/09/15 05:20:42;;;;;;;7.80;6.07;;;;;;;;;;5055158;28;20827;-65
2021/09/15 05:23:09;;;;;;;9.00;7.50;;;;;;;;;;5056489;28;20402;-65
2021/09/15 05:25:35;;;;;;;8.50;6.73;;;;;;;;;;5055631;28;20454;-65
2021/09/15 05:28:01;;;;;;;10.20;6.50;;;;;;;;;;5056524;28;20921;-65
2021/09/15 05:30:27;;;;;;;9.40;6.57;;;;;;;;;;5055189;28;20454;-64
2021/09/15 05:32:53;;;;;;;8.73;6.50;;;;;;;;;;5056482;28;20410;-65
2021/09/15 05:35:19;;;;;;;7.93;6.73;;;;;;;;;;5054663;28;20440;-65
2021/09/15 05:37:45;;;;;;;7.60;6.23;;;;;;;;;;5056955;28;20548;-65
2021/09/15 05:40:12;;;;;;;8.53;6.10;;;;;;;;;;5056416;28;20448;-67
2021/09/15 05:42:38;;;;;;;8.33;5.50;;;;;;;;;;5057320;28;20409;-65
2021/09/15 05:45:05;;;;;;;8.50;6.03;;;;;;;;;;5057500;28;20487;-65
2021/09/15 05:47:31;;;;;;;6.97;5.90;;;;;;;;;;5056615;28;20456;-65
2021/09/15 05:49:58;;;;;;;7.40;6.30;;;;;;;;;;5057301;28;20426;-65
2021/09/15 05:52:24;;;;;;;8.50;6.40;;;;;;;;;;5056169;28;20417;-65
2021/09/15 05:54:51;;;;;;;7.50;5.97;;;;;;;;;;5054205;28;20914;-65
2021/09/15 05:57:17;;;;;;;6.20;5.60;;;;;;;;;;5054658;28;20422;-65
2021/09/15 05:59:43;;;;;;;8.90;7.00;;;;;;;;;;5055682;28;20463;-65
2021/09/15 06:02:09;;;;;;;9.67;6.23;;;;;;;;;;5055228;28;20418;-66
2021/09/15 06:04:35;;;;;;;6.80;5.20;;;;;;;;;;5055626;28;20421;-66
2021/09/15 06:07:01;;;;;;;7.63;5.60;;;;;;;;;;5054862;28;20432;-65
2021/09/15 06:09:27;;;;;;;10.63;6.87;;;;;;;;;;5055916;28;20417;-66
2021/09/15 06:11:53;;;;;;;7.63;5.80;;;;;;;;;;5053729;28;20470;-65
2021/09/15 06:14:19;;;;;;;8.83;6.23;;;;;;;;;;5055591;28;20470;-65
2021/09/15 06:16:45;;;;;;;7.50;6.70;;;;;;;;;;5053493;28;21672;-66
2021/09/15 06:19:11;;;;;;;8.00;5.57;;;;;;;;;;5057047;28;20466;-65
2021/09/15 06:21:38;;;;;;;10.47;6.77;;;;;;;;;;5056110;28;20468;-66
2021/09/15 06:24:04;;;;;;;8.10;6.37;;;;;;;;;;5056989;28;20413;-64
2021/09/15 06:26:30;;;;;;;7.53;6.13;;;;;;;;;;5054630;28;20422;-65
2021/09/15 06:28:56;;;;;;;10.00;7.00;;;;;;;;;;5055701;28;20479;-65
2021/09/15 06:31:22;;;;;;;9.50;7.57;;;;;;;;;;5055811;28;20528;-65
2021/09/15 06:33:49;;;;;;;8.80;5.90;;;;;;;;;;5056811;28;20413;-66
2021/09/15 06:36:15;;;;;;;11.00;6.00;;;;;;;;;;5055906;28;20421;-66
2021/09/15 06:38:44;;;;;;;10.33;6.40;;;;;;;;;;5056746;28;20453;-66
2021/09/15 06:41:11;;;;;;;9.63;6.70;;;;;;;;;;5054488;28;20456;-67
2021/09/15 06:43:38;;;;;;;7.90;5.90;;;;;;;;;;5056646;28;20398;-65
2021/09/15 06:46:04;;;;;;;7.20;6.10;;;;;;;;;;5056113;28;20472;-67
2021/09/15 06:48:30;;;;;;;7.47;5.90;;;;;;;;;;5056585;28;20422;-65
2021/09/15 06:50:56;;;;;;;7.70;6.60;;;;;;;;;;5055223;28;20417;-65
2021/09/15 06:53:22;;;;;;;6.83;5.70;;;;;;;;;;5054306;28;20760;-65
2021/09/15 06:55:48;;;;;;;6.17;5.33;;;;;;;;;;5055502;28;20766;-65
2021/09/15 06:58:14;;;;;;;7.23;5.70;;;;;;;;;;5053907;28;20508;-66
2021/09/15 07:00:40;;;;;;;7.13;6.10;;;;;;;;;;5049007;28;20442;-66
2021/09/15 07:03:06;;;;;;;8.37;5.67;;;;;;;;;;5038934;28;20429;-66
2021/09/15 07:05:32;;;;;;;10.03;7.03;;;;;;;;;;5053382;28;20411;-65
2021/09/15 07:07:58;;;;;;;6.33;5.37;;;;;;;;;;5048475;28;20433;-65
2021/09/15 07:10:24;;;;;;;9.13;6.50;;;;;;;;;;5048593;28;20469;-64
2021/09/15 07:12:50;;;;;;;10.17;7.70;;;;;;;;;;5052553;28;20477;-64
2021/09/15 07:15:17;;;;;;;9.03;6.37;;;;;;;;;;5046252;28;20526;-64
2021/09/15 07:17:44;;;;;;;7.40;5.67;;;;;;;;;;5048256;28;20449;-64
2021/09/15 07:20:13;;;;;;;10.03;6.23;;;;;;;;;;5049692;28;21011;-65
2021/09/15 07:22:39;;;;;;;6.97;6.00;;;;;;;;;;5050140;28;20425;-65
2021/09/15 07:25:05;;;;;;;11.50;6.90;;;;;;;;;;5051320;28;20437;-65
2021/09/15 07:27:31;;;;;;;10.70;6.20;;;;;;;;;;5043927;28;20452;-65
2021/09/15 07:29:57;;;;;;;8.13;6.20;;;;;;;;;;5027084;28;20529;-66
2021/09/15 07:32:24;;;;;;;10.33;6.90;;;;;;;;;;5048963;28;20794;-64
2021/09/15 07:34:50;;;;;;;9.23;6.80;;;;;;;;;;5049748;28;20420;-64
2021/09/15 07:37:17;;;;;;;7.20;6.43;;;;;;;;;;5050189;28;20409;-64
2021/09/15 07:39:43;;;;;;;8.53;6.80;;;;;;;;;;5047171;28;20505;-68
2021/09/15 07:42:09;;;;;;;8.40;6.67;;;;;;;;;;5049973;28;20421;-64
2021/09/15 07:44:36;;;;;;;8.90;7.27;;;;;;;;;;5046566;28;20418;-64
2021/09/15 07:47:02;;;;;;;9.30;6.53;;;;;;;;;;5043267;28;20751;-63
2021/09/15 07:49:28;;;;;;;8.30;6.40;;;;;;;;;;5048062;28;20441;-63
2021/09/15 07:51:54;;;;;;;8.03;6.97;;;;;;;;;;5051742;28;20456;-62
2021/09/15 07:54:20;;;;;;;13.60;7.40;;;;;;;;;;5049811;28;20469;-64
2021/09/15 07:56:46;;;;;;;8.17;6.63;;;;;;;;;;5050434;28;20417;-64
2021/09/15 07:59:12;;;;;;;8.80;6.60;;;;;;;;;;5049729;28;20477;-64
2021/09/15 08:01:38;;;;;;;12.17;6.87;;;;;;;;;;5051664;28;20449;-64
2021/09/15 08:04:04;;;;;;;12.03;7.10;;;;;;;;;;5043803;28;20425;-64
2021/09/15 08:06:30;;;;;;;8.40;7.03;;;;;;;;;;5049858;28;20423;-62
2021/09/15 08:08:57;;;;;;;9.77;6.50;;;;;;;;;;5045841;28;20461;-62
2021/09/15 08:11:23;;;;;;;9.60;6.63;;;;;;;;;;5048049;28;20482;-62
2021/09/15 08:13:51;;;;;;;7.50;5.90;;;;;;;;;;5043831;28;20495;-62
2021/09/15 08:16:17;;;;;;;8.37;7.37;;;;;;;;;;5047676;28;20431;-66
2021/09/15 08:18:43;;;;;;;9.60;7.37;;;;;;;;;;5048394;28;20461;-65
2021/09/15 08:21:09;;;;;;;11.77;7.67;;;;;;;;;;5046292;28;20452;-65
2021/09/15 08:23:35;;;;;;;10.00;7.13;;;;;;;;;;5046160;28;20425;-66
2021/09/15 08:26:01;;;;;;;9.77;7.40;;;;;;;;;;5050593;28;20424;-66
2021/09/15 08:28:27;;;;;;;8.43;6.83;;;;;;;;;;5049432;28;20429;-67
2021/09/15 08:30:53;;;;;;;8.20;6.83;;;;;;;;;;5048269;28;20437;-64
2021/09/15 08:33:19;;;;;;;14.70;6.77;;;;;;;;;;5045512;28;20433;-66
2021/09/15 08:35:45;;;;;;;7.93;6.40;;;;;;;;;;5052054;28;20469;-66
2021/09/15 08:38:12;;;;;;;8.73;7.07;;;;;;;;;;5051350;28;21046;-65
2021/09/15 08:40:39;;;;;;;11.63;7.47;;;;;;;;;;5039466;28;20460;-65
2021/09/15 08:43:05;;;;;;;13.63;7.70;;;;;;;;;;5049876;28;20413;-65
2021/09/15 08:45:31;;;;;;;7.53;6.20;;;;;;;;;;5051239;28;20950;-66
2021/09/15 08:47:57;;;;;;;9.40;6.40;;;;;;;;;;5051530;28;20491;-65
2021/09/15 08:50:23;;;;;;;8.57;6.47;;;;;;;;;;5049757;28;20453;-65
2021/09/15 08:52:50;;;;;;;7.40;6.00;;;;;;;;;;5049312;28;20438;-64
2021/09/15 08:55:16;;;;;;;7.10;6.00;;;;;;;;;;5051799;28;20825;-65
2021/09/15 08:57:42;;;;;;;8.47;5.73;;;;;;;;;;5050319;28;20433;-59
2021/09/15 09:00:09;;;;;;;8.77;5.60;;;;;;;;;;5052258;28;20460;-65
2021/09/15 09:02:37;;;;;;;8.93;6.93;;;;;;;;;;5047035;28;20425;-65
2021/09/15 09:05:03;;;;;;;6.90;6.20;;;;;;;;;;5050767;28;20427;-66
2021/09/15 09:07:30;;;;;;;9.47;6.10;;;;;;;;;;5050173;28;20468;-66
2021/09/15 09:09:59;;;;;;;7.37;6.67;;;;;;;;;;5051929;28;20445;-64
2021/09/15 09:12:27;;;;;;;9.00;6.63;;;;;;;;;;5050838;28;20842;-66
2021/09/15 09:14:53;;;;;;;9.83;6.93;;;;;;;;;;5051638;28;20805;-62
2021/09/15 09:17:30;;;;;;;7.57;6.77;;;;;;;;;;5053898;28;20925;-62
2021/09/15 09:20:31;;;;;;;6.60;5.90;;;;;;;;;;5049410;28;20549;-68
2021/09/15 09:22:59;;;;;;;10.93;5.80;;;;;;;;;;4947862;29;20885;-67
2021/09/15 09:25:25;;;;;;;9.60;6.00;;;;;;;;;;5028499;28;20437;-65
2021/09/15 09:27:51;;;;;;;9.83;7.10;;;;;;;;;;5048427;28;20851;-65
2021/09/15 09:30:37;;;;;;;11.90;6.43;;;;;;;;;;5051574;28;20459;-68
2021/09/15 09:33:05;;;;;;;6.90;6.20;;;;;;;;;;5046617;28;20446;-64
2021/09/15 09:35:45;;;;;;;7.00;6.03;;;;;;;;;;5053998;28;20438;-65
2021/09/15 09:38:17;;;;;;;6.33;5.60;;;;;;;;;;5051918;28;20468;-64
2021/09/15 09:40:56;;;;;;;8.00;6.37;;;;;;;;;;5046264;28;20465;-63
2021/09/15 09:43:22;;;;;;;15.70;6.97;;;;;;;;;;5050671;28;20452;-65
2021/09/15 09:45:49;;;;;;;10.93;6.27;;;;;;;;;;5047415;28;21048;-67
2021/09/15 09:48:34;;;;;;;10.50;6.63;;;;;;;;;;5050457;28;20428;-66
2021/09/15 09:51:01;;;;;;;7.63;5.67;;;;;;;;;;5031720;28;20820;-67
2021/09/15 09:53:28;;;;;;;7.93;6.50;;;;;;;;;;5045794;28;20433;-66
2021/09/15 09:55:57;;;;;;;12.77;6.73;;;;;;;;;;5048980;28;20429;-66
2021/09/15 09:58:23;;;;;;;7.17;6.03;;;;;;;;;;5049143;28;20984;-66
2021/09/15 10:00:50;;;;;;;6.97;5.70;;;;;;;;;;5048317;28;20445;-67
2021/09/15 10:03:17;;;;;;;8.23;6.40;;;;;;;;;;5047836;28;20433;-69
2021/09/15 10:05:44;;;;;;;9.80;5.93;;;;;;;;;;5028966;28;20417;-71
2021/09/15 10:08:11;;;;;;;8.00;5.67;;;;;;;;;;5030197;28;20433;-64
2021/09/15 10:10:40;;;;;;;10.37;6.50;;;;;;;;;;5047942;28;20445;-69
2021/09/15 10:13:09;;;;;;;9.60;6.87;;;;;;;;;;5048049;28;20534;-69
2021/09/15 10:15:43;;;;;;;11.40;6.67;;;;;;;;;;5046482;28;20430;-69
2021/09/15 10:18:11;;;;;;;9.40;6.20;;;;;;;;;;5051187;28;20455;-70
2021/09/15 10:20:37;;;;;;;7.90;7.03;;;;;;;;;;5049972;28;20449;-69
2021/09/15 10:23:23;;;;;;;9.30;6.37;;;;;;;;;;5046610;28;20428;-71
2021/09/15 10:25:49;;;;;;;8.47;6.57;;;;;;;;;;5038500;28;20466;-65
2021/09/15 10:28:16;;;;;;;16.10;7.33;;;;;;;;;;5048750;28;20417;-66
2021/09/15 10:30:53;;;;;;;11.20;6.53;;;;;;;;;;5048043;28;20549;-67
2021/09/15 10:33:37;;;;;;;9.07;7.33;;;;;;;;;;5048032;28;20498;-67
2021/09/15 10:36:23;;;;;;;9.63;7.47;;;;;;;;;;5050450;28;20425;-67
2021/09/15 10:38:52;;;;;;;10.77;7.30;;;;;;;;;;5037918;28;20465;-70
2021/09/15 10:41:34;;;;;;;10.93;6.93;;;;;;;;;;5045585;28;20480;-69
2021/09/15 10:44:18;;;;;;;9.60;7.43;;;;;;;;;;5031243;28;20920;-68
2021/09/15 10:46:45;;;;;;;10.50;7.30;;;;;;;;;;5048142;28;20463;-69
2021/09/15 10:49:20;;;;;;;10.80;7.20;;;;;;;;;;5041977;28;20421;-65
2021/09/15 10:51:48;;;;;;;7.37;6.50;;;;;;;;;;5045399;28;20447;-61
2021/09/15 10:54:40;;;;;;;8.10;6.37;;;;;;;;;;5051130;28;20422;-68
2021/09/15 10:57:12;;;;;;;9.07;6.93;;;;;;;;;;5029834;28;20429;-67
2021/09/15 10:59:57;;;;;;;9.20;7.30;;;;;;;;;;5048329;28;20453;-67
2021/09/15 11:02:32;;;;;;;9.83;6.90;;;;;;;;;;5044352;22;21842;-68
2021/09/15 11:05:03;;;;;;;7.67;6.10;;;;;;;;;;5004023;28;20443;-68
2021/09/15 11:07:48;;;;;;;7.50;6.30;;;;;;;;;;5004892;28;20423;-68
2021/09/15 11:10:32;;;;;;;11.43;6.90;;;;;;;;;;5004649;28;20419;-68
2021/09/15 11:13:02;;;;;;;8.10;6.70;;;;;;;;;;5004869;28;20447;-68
2021/09/15 11:15:48;;;;;;;11.13;7.03;;;;;;;;;;5005380;28;20532;-68
2021/09/15 11:18:24;;;;;;;7.43;6.63;;;;;;;;;;5010921;28;20534;-68
2021/09/15 11:20:53;;;;;;;8.97;6.70;;;;;;;;;;5007815;28;20427;-69
2021/09/15 11:23:20;;;;;;;7.20;6.07;;;;;;;;;;5011014;28;20842;-69
2021/09/15 11:25:49;;;;;;;8.67;7.10;;;;;;;;;;5005529;28;20586;-69
2021/09/15 11:28:16;;;;;;;11.10;6.97;;;;;;;;;;5010029;28;20456;-70
2021/09/15 11:30:51;;;;;;;9.33;6.50;;;;;;;;;;5007173;28;20474;-69
2021/09/15 11:33:27;;;;;;;10.67;6.13;;;;;;;;;;5009240;28;20606;-71
2021/09/15 11:35:57;;;;;;;9.40;6.87;;;;;;;;;;5006246;28;20422;-69
2021/09/15 11:38:25;;;;;;;8.17;6.70;;;;;;;;;;5009313;28;20461;-69
2021/09/15 11:40:51;;;;;;;8.53;6.40;;;;;;;;;;5009188;28;20415;-69
2021/09/15 11:43:19;;;;;;;6.83;6.03;;;;;;;;;;5006426;28;20845;-69
2021/09/15 11:45:48;;;;;;;7.33;6.00;;;;;;;;;;5008527;28;20498;-69
2021/09/15 11:48:24;;;;;;;8.27;6.17;;;;;;;;;;5005430;28;20555;-69
2021/09/15 11:50:50;;;;;;;9.90;5.80;;;;;;;;;;5004606;28;20426;-69
2021/09/15 11:53:17;;;;;;;9.27;6.63;;;;;;;;;;5006161;28;20477;-69
2021/09/15 11:55:49;;;;;;;7.10;6.40;;;;;;;;;;5004050;28;20481;-69
2021/09/15 11:58:15;;;;;;;9.10;6.43;;;;;;;;;;5009044;28;20779;-69
2021/09/15 12:00:42;;;;;;;7.30;5.97;;;;;;;;;;5006358;28;20423;-69
2021/09/15 12:03:12;;;;;;;7.00;5.93;;;;;;;;;;5008702;28;20827;-69
2021/09/15 12:05:38;;;;;;;9.53;6.20;;;;;;;;;;5007026;28;20415;-70
2021/09/15 12:08:05;;;;;;;8.10;6.20;;;;;;;;;;5009653;28;20411;-69
2021/09/15 12:10:32;;;;;;;6.60;5.77;;;;;;;;;;5010206;28;20888;-69
2021/09/15 12:12:59;;;;;;;6.60;5.40;;;;;;;;;;5008633;28;20450;-69
2021/09/15 12:15:25;;;;;;;10.63;7.20;;;;;;;;;;5011274;28;20511;-69
2021/09/15 12:17:57;;;;;;;6.80;5.37;;;;;;;;;;5010692;28;20932;-71
2021/09/15 12:20:41;;;;;;;7.73;6.30;;;;;;;;;;5011791;28;20521;-69
2021/09/15 12:23:08;;;;;;;9.43;6.40;;;;;;;;;;5010194;28;20474;-72
2021/09/15 12:25:34;;;;;;;7.43;6.30;;;;;;;;;;5012116;28;20431;-69
2021/09/15 12:28:00;;;;;;;8.60;6.60;;;;;;;;;;5010351;28;20431;-71
2021/09/15 12:30:26;;;;;;;7.97;5.80;;;;;;;;;;4992208;28;20441;-69
2021/09/15 12:32:57;;;;;;;6.53;5.90;;;;;;;;;;5010501;28;20543;-69
2021/09/15 12:35:25;;;;;;;7.57;5.83;;;;;;;;;;5011108;28;20463;-69
2021/09/15 12:38:05;;;;;;;8.27;6.53;;;;;;;;;;5013200;28;20423;-71
2021/09/15 12:40:32;;;;;;;12.80;6.73;;;;;;;;;;5007787;28;20936;-69
2021/09/15 12:43:00;;;;;;;10.73;7.10;;;;;;;;;;5011747;28;20528;-70
2021/09/15 12:45:26;;;;;;;10.50;6.03;;;;;;;;;;5007899;28;20454;-70
2021/09/15 12:47:52;;;;;;;8.50;6.33;;;;;;;;;;5008791;28;20431;-69
2021/09/15 12:50:21;;;;;;;7.93;6.50;;;;;;;;;;5010408;28;20424;-69
2021/09/15 12:52:51;;;;;;;7.60;6.47;;;;;;;;;;5012474;28;20434;-69
2021/09/15 12:55:21;;;;;;;8.90;7.00;;;;;;;;;;5011678;28;20485;-69
2021/09/15 12:58:00;;;;;;;12.90;7.37;;;;;;;;;;5011997;28;20827;-69
2021/09/15 13:00:33;;;;;;;10.10;7.20;;;;;;;;;;5007744;28;20449;-69
2021/09/15 13:02:59;;;;;;;12.47;7.60;;;;;;;;;;5009235;28;20501;-69
2021/09/15 13:05:25;;;;;;;10.07;6.87;;;;;;;;;;5011224;28;20434;-69
2021/09/15 13:07:53;;;;;;;8.67;7.37;;;;;;;;;;5012311;28;20790;-69
2021/09/15 13:10:19;;;;;;;11.43;7.43;;;;;;;;;;5007899;28;20439;-69
2021/09/15 13:12:45;;;;;;;11.50;8.53;;;;;;;;;;5011831;28;20439;-69
2021/09/15 13:15:12;;;;;;;10.03;7.70;;;;;;;;;;5009733;28;20474;-69
2021/09/15 13:17:38;;;;;;;10.30;7.60;;;;;;;;;;5013117;28;20426;-69
2021/09/15 13:20:04;;;;;;;10.90;6.67;;;;;;;;;;4991566;28;20482;-69
2021/09/15 13:22:30;;;;;;;9.57;8.57;;;;;;;;;;5008948;28;20500;-69
2021/09/15 13:24:57;;;;;;;13.60;10.00;;;;;;;;;;5006161;28;20431;-69
2021/09/15 13:27:23;;;;;;;10.00;7.17;;;;;;;;;;5012562;28;22399;-69
2021/09/15 13:29:49;;;;;;;10.80;8.63;;;;;;;;;;5009273;28;20416;-69
2021/09/15 13:32:15;;;;;;;12.77;8.30;;;;;;;;;;5011961;28;20435;-69
2021/09/15 13:34:41;;;;;;;11.23;8.67;;;;;;;;;;5010207;28;20570;-70
2021/09/15 13:37:08;;;;;;;10.43;8.37;;;;;;;;;;5009030;28;20481;-69
2021/09/15 13:39:35;;;;;;;25.03;10.97;;;;;;;;;;5011855;28;20457;-69
2021/09/15 13:42:01;;;;;;;11.00;8.60;;;;;;;;;;5011610;28;20533;-69
2021/09/15 13:44:27;;;;;;;11.40;9.50;;;;;;;;;;5012069;28;20423;-69
2021/09/15 13:46:54;;;;;;;11.20;10.10;;;;;;;;;;5011330;28;20799;-69
2021/09/15 13:49:26;;;;;;;10.50;9.40;;;;;;;;;;5012775;28;20517;-69
2021/09/15 13:51:53;;;;;;;12.00;9.13;;;;;;;;;;5011820;28;20462;-69
2021/09/15 13:54:19;;;;;;;16.50;13.40;;;;;;;;;;5011397;28;20505;-69
2021/09/15 13:56:45;;;;;;;13.53;10.50;;;;;;;;;;5008882;28;20427;-70
2021/09/15 13:59:11;;;;;;;12.37;10.60;;;;;;;;;;4991541;28;20451;-69
2021/09/15 14:01:37;;;;;;;16.67;12.90;;;;;;;;;;5010894;28;20463;-70
2021/09/15 14:04:03;;;;;;;13.27;11.90;;;;;;;;;;5007161;28;20445;-70
2021/09/15 14:06:29;;;;;;;12.83;10.67;;;;;;;;;;5006584;28;20431;-69
2021/09/15 14:08:55;;;;;;;13.93;10.70;;;;;;;;;;5016948;28;20430;-70
2021/09/15 14:11:21;;;;;;;14.80;11.90;;;;;;;;;;5007096;28;20853;-70
2021/09/15 14:13:47;;;;;;;12.70;10.77;;;;;;;;;;5011388;28;20458;-69
2021/09/15 14:16:14;;;;;;;14.67;11.93;;;;;;;;;;5010539;28;20419;-69
2021/09/15 14:18:40;;;;;;;13.83;11.10;;;;;;;;;;5007417;28;20459;-70
2021/09/15 14:21:06;;;;;;;11.40;9.60;;;;;;;;;;5004710;28;20431;-70
2021/09/15 14:23:32;;;;;;;12.03;9.77;;;;;;;;;;5007208;28;20795;-70
2021/09/15 14:25:58;;;;;;;14.43;11.47;;;;;;;;;;5008493;28;20427;-69
2021/09/15 14:28:24;;;;;;;16.63;10.80;;;;;;;;;;5008209;28;20432;-69
2021/09/15 14:30:50;;;;;;;11.97;9.37;;;;;;;;;;5005921;28;20777;-70
2021/09/15 14:33:17;;;;;;;13.73;9.50;;;;;;;;;;5005706;28;20807;-71
2021/09/15 14:35:43;;;;;;;12.43;9.90;;;;;;;;;;5006436;28;20469;-70
2021/09/15 14:38:09;;;;;;;11.73;10.53;;;;;;;;;;5006876;28;20455;-70
2021/09/15 14:40:35;;;;;;;14.83;10.07;;;;;;;;;;5004941;28;20430;-71
2021/09/15 14:43:01;;;;;;;13.60;9.33;;;;;;;;;;5009615;28;20991;-70
2021/09/15 14:45:27;;;;;;;12.60;8.20;;;;;;;;;;5007170;28;20431;-70
2021/09/15 14:47:53;;;;;;;10.23;7.70;;;;;;;;;;5004732;28;20427;-70